Flight Number: EUR1469 Duration: 1:15
Departure: Arhangelsk (ULAA) at 18:15 Distance: 410 Nm
Arrival: St.Petersburg Pulkovo (ULLI) at 19:30 Equipment: B737

Weather Information
Arhangel'Sk, Russia (ULAA) 64-30N 040-44E 8M Sep 21, 2017 - 05:00 PM EDT / 2017.09.21 2100 UTC
Wind: from the E (100 degrees) at 7 MPH (6 KT):0
Visibility: greater than 7 mile(s):0
Sky conditions: partly cloudy Temperature: 32 F (0 C)
Windchill: 24 F (-4 C):1 Dew Point: 32 F (0 C) Relative Humidity: 100% Pressure (altimeter): 30.71 in. Hg (1040 hPa)
ob: ULAA 212100Z 10003MPS 9999 SCT033 M00/M00 Q1040 R08/CLRD70 NOSIG RMK QFE779/1039 cycle: 21
Sunrise: 03:04 Sunset: 15:15 (UTC)

St. Peterburg, Russia (ULLI) 59-58N 030-18E 6M Sep 21, 2017 - 05:00 PM EDT / 2017.09.21 2100 UTC
Wind: from the E (090 degrees) at 7 MPH (6 KT) (direction variable):0
Visibility: greater than 7 mile(s):0
Sky conditions: partly cloudy Temperature: 50 F (10 C) Dew Point: 46 F (8 C) Relative Humidity: 87% Pressure (altimeter): 30.42 in. Hg (1030 hPa)
ob: ULLI 212100Z 09003MPS 020V140 9999 SCT043 10/08 Q1030 R10L/090060 NOSIG cycle: 21
Sunrise: 03:47 Sunset: 15:56 (UTC)

TAF:2017/09/21 21:21 TAF TAF ULLI 211955Z 2121/2221 08006G11MPS 6000 BKN011 BKN020 TEMPO 2121/2212 12008G13MPS 3100 -TSRA BR BKN007 BKN020CB BECMG 2212/2214 12005G10MPS BKN030 TEMPO 2212/2218 4000 -SHRA BKN011 BKN025CB TEMPO 2218/2221 3100 BR

Previous Pireps for this route
Date Aircraft Flight time Fuel used Landing rate On time
2013-06-26MD-8101.2810457-178Charter
2015-06-26B73701.287945-177Yes
2016-01-18B73701.208000-174Yes
2016-08-30B73701.1313062-86Yes
(pireps marked green are flown by you)

Route map